sensor_id;sensor_type;location;lat;lon;timestamp;pressure;altitude;pressure_sealevel;temperature;humidity
47761;BME280;33524;55.434;38.520;2023-07-31T00:00:02;99456.31;;;12.41;95.71
47761;BME280;33524;55.434;38.520;2023-07-31T00:02:32;99467.44;;;12.35;96.89
47761;BME280;33524;55.434;38.520;2023-07-31T00:05:01;99470.16;;;12.43;94.84
47761;BME280;33524;55.434;38.520;2023-07-31T00:07:30;99473.00;;;12.59;92.39
47761;BME280;33524;55.434;38.520;2023-07-31T00:09:58;99466.53;;;12.44;93.55
47761;BME280;33524;55.434;38.520;2023-07-31T00:12:29;99465.69;;;12.16;96.74
47761;BME280;33524;55.434;38.520;2023-07-31T00:14:57;99463.09;;;12.06;100.00
47761;BME280;33524;55.434;38.520;2023-07-31T00:17:25;99467.78;;;12.12;99.12
47761;BME280;33524;55.434;38.520;2023-07-31T00:19:53;99468.37;;;12.06;99.71
47761;BME280;33524;55.434;38.520;2023-07-31T00:22:21;99466.59;;;12.34;93.89
47761;BME280;33524;55.434;38.520;2023-07-31T00:24:49;99465.16;;;12.40;92.60
47761;BME280;33524;55.434;38.520;2023-07-31T00:27:17;99462.28;;;12.33;94.34
47761;BME280;33524;55.434;38.520;2023-07-31T00:29:45;99450.81;;;12.24;93.53
47761;BME280;33524;55.434;38.520;2023-07-31T00:32:13;99462.25;;;12.43;92.22
47761;BME280;33524;55.434;38.520;2023-07-31T00:34:41;99466.94;;;12.49;91.76
47761;BME280;33524;55.434;38.520;2023-07-31T00:37:10;99464.31;;;12.49;91.13
47761;BME280;33524;55.434;38.520;2023-07-31T00:39:41;99471.06;;;12.61;89.52
47761;BME280;33524;55.434;38.520;2023-07-31T00:42:09;99465.28;;;12.48;89.71
47761;BME280;33524;55.434;38.520;2023-07-31T00:44:37;99472.56;;;12.64;87.77
47761;BME280;33524;55.434;38.520;2023-07-31T00:47:05;99473.97;;;12.58;89.96
47761;BME280;33524;55.434;38.520;2023-07-31T00:49:34;99479.47;;;12.65;87.22
47761;BME280;33524;55.434;38.520;2023-07-31T00:52:02;99474.28;;;12.55;89.08
47761;BME280;33524;55.434;38.520;2023-07-31T00:54:30;99471.44;;;12.39;91.86
47761;BME280;33524;55.434;38.520;2023-07-31T00:57:00;99462.16;;;12.35;90.71
47761;BME280;33524;55.434;38.520;2023-07-31T00:59:28;99475.81;;;12.48;89.91
47761;BME280;33524;55.434;38.520;2023-07-31T01:01:56;99472.12;;;12.41;91.71
47761;BME280;33524;55.434;38.520;2023-07-31T01:04:25;99460.47;;;12.34;91.61
47761;BME280;33524;55.434;38.520;2023-07-31T01:07:07;99479.34;;;12.39;90.55
47761;BME280;33524;55.434;38.520;2023-07-31T01:10:03;99487.53;;;12.36;90.99
47761;BME280;33524;55.434;38.520;2023-07-31T01:12:32;99476.91;;;12.55;85.05
47761;BME280;33524;55.434;38.520;2023-07-31T01:15:06;99478.22;;;12.41;89.60
47761;BME280;33524;55.434;38.520;2023-07-31T01:17:41;99477.97;;;12.35;89.92
47761;BME280;33524;55.434;38.520;2023-07-31T01:20:30;99481.00;;;12.40;86.99
47761;BME280;33524;55.434;38.520;2023-07-31T01:29:17;99476.53;;;12.03;90.39
47761;BME280;33524;55.434;38.520;2023-07-31T01:31:50;99479.50;;;11.80;95.95
47761;BME280;33524;55.434;38.520;2023-07-31T01:34:21;99481.44;;;11.68;98.46
47761;BME280;33524;55.434;38.520;2023-07-31T01:36:51;99479.81;;;11.58;100.00
47761;BME280;33524;55.434;38.520;2023-07-31T01:39:20;99480.34;;;11.61;100.00
47761;BME280;33524;55.434;38.520;2023-07-31T01:41:48;99494.47;;;11.60;99.80
47761;BME280;33524;55.434;38.520;2023-07-31T01:44:16;99492.69;;;11.70;97.63
47761;BME280;33524;55.434;38.520;2023-07-31T01:46:44;99490.44;;;11.85;96.39
47761;BME280;33524;55.434;38.520;2023-07-31T01:49:12;99479.75;;;11.77;96.02
47761;BME280;33524;55.434;38.520;2023-07-31T01:51:40;99492.94;;;11.77;97.35
47761;BME280;33524;55.434;38.520;2023-07-31T01:54:08;99487.12;;;11.93;93.21
47761;BME280;33524;55.434;38.520;2023-07-31T01:56:37;99491.13;;;11.87;93.08
47761;BME280;33524;55.434;38.520;2023-07-31T01:59:06;99498.06;;;11.79;96.00
47761;BME280;33524;55.434;38.520;2023-07-31T02:01:34;99491.41;;;12.04;91.95
47761;BME280;33524;55.434;38.520;2023-07-31T02:04:05;99505.59;;;12.30;86.55
47761;BME280;33524;55.434;38.520;2023-07-31T02:06:33;99499.19;;;12.43;84.95
47761;BME280;33524;55.434;38.520;2023-07-31T02:09:01;99498.91;;;12.74;82.46
47761;BME280;33524;55.434;38.520;2023-07-31T02:11:31;99501.41;;;12.93;81.91
47761;BME280;33524;55.434;38.520;2023-07-31T02:14:02;99497.22;;;13.00;81.58
47761;BME280;33524;55.434;38.520;2023-07-31T02:16:31;99501.59;;;13.09;79.86
47761;BME280;33524;55.434;38.520;2023-07-31T02:19:00;99492.16;;;13.25;78.28
47761;BME280;33524;55.434;38.520;2023-07-31T02:21:28;99498.91;;;13.37;77.79
47761;BME280;33524;55.434;38.520;2023-07-31T02:23:56;99494.91;;;13.33;77.84
47761;BME280;33524;55.434;38.520;2023-07-31T02:26:24;99490.84;;;13.39;77.66
47761;BME280;33524;55.434;38.520;2023-07-31T02:28:52;99493.16;;;13.24;78.63
47761;BME280;33524;55.434;38.520;2023-07-31T02:31:21;99486.56;;;13.10;79.56
47761;BME280;33524;55.434;38.520;2023-07-31T02:33:49;99489.63;;;12.87;83.48
47761;BME280;33524;55.434;38.520;2023-07-31T02:36:17;99485.97;;;12.98;83.41
47761;BME280;33524;55.434;38.520;2023-07-31T02:38:45;99488.41;;;13.09;81.97
47761;BME280;33524;55.434;38.520;2023-07-31T02:41:14;99480.22;;;13.30;80.59
47761;BME280;33524;55.434;38.520;2023-07-31T02:43:42;99487.25;;;13.40;78.51
47761;BME280;33524;55.434;38.520;2023-07-31T02:46:10;99469.41;;;13.24;80.43
47761;BME280;33524;55.434;38.520;2023-07-31T02:48:38;99486.47;;;13.47;77.64
47761;BME280;33524;55.434;38.520;2023-07-31T02:51:06;99494.94;;;13.05;83.92
47761;BME280;33524;55.434;38.520;2023-07-31T02:53:34;99501.88;;;12.88;87.59
47761;BME280;33524;55.434;38.520;2023-07-31T02:56:02;99494.81;;;13.07;82.74
47761;BME280;33524;55.434;38.520;2023-07-31T02:58:30;99492.06;;;13.44;82.72
47761;BME280;33524;55.434;38.520;2023-07-31T03:00:59;99493.97;;;13.78;77.02
47761;BME280;33524;55.434;38.520;2023-07-31T03:03:27;99490.66;;;13.76;78.17
47761;BME280;33524;55.434;38.520;2023-07-31T03:05:55;99489.63;;;13.95;76.38
47761;BME280;33524;55.434;38.520;2023-07-31T03:08:24;99494.34;;;14.09;75.39
47761;BME280;33524;55.434;38.520;2023-07-31T03:10:52;99484.34;;;14.21;74.70
47761;BME280;33524;55.434;38.520;2023-07-31T03:13:22;99490.69;;;14.28;74.75
47761;BME280;33524;55.434;38.520;2023-07-31T03:15:50;99487.59;;;14.15;77.06
47761;BME280;33524;55.434;38.520;2023-07-31T03:18:18;99479.69;;;14.15;77.19
47761;BME280;33524;55.434;38.520;2023-07-31T03:20:46;99478.84;;;14.15;82.08
47761;BME280;33524;55.434;38.520;2023-07-31T03:23:16;99486.06;;;14.04;86.76
47761;BME280;33524;55.434;38.520;2023-07-31T03:26:01;99475.00;;;14.09;87.62
47761;BME280;33524;55.434;38.520;2023-07-31T03:28:31;99474.84;;;14.45;75.38
47761;BME280;33524;55.434;38.520;2023-07-31T03:30:59;99473.38;;;14.77;73.97
47761;BME280;33524;55.434;38.520;2023-07-31T03:33:27;99475.87;;;14.78;78.92
47761;BME280;33524;55.434;38.520;2023-07-31T03:35:56;99485.16;;;14.90;74.48
47761;BME280;33524;55.434;38.520;2023-07-31T03:38:24;99477.44;;;15.13;73.47
47761;BME280;33524;55.434;38.520;2023-07-31T03:40:53;99466.19;;;15.11;74.30
47761;BME280;33524;55.434;38.520;2023-07-31T03:43:22;99470.84;;;15.50;71.45
47761;BME280;33524;55.434;38.520;2023-07-31T03:45:50;99490.06;;;15.69;71.22
47761;BME280;33524;55.434;38.520;2023-07-31T03:48:17;99483.25;;;15.91;70.48
47761;BME280;33524;55.434;38.520;2023-07-31T03:50:46;99483.88;;;16.09;70.22
47761;BME280;33524;55.434;38.520;2023-07-31T03:53:14;99483.69;;;16.27;69.90
47761;BME280;33524;55.434;38.520;2023-07-31T03:55:42;99481.81;;;16.44;69.10
47761;BME280;33524;55.434;38.520;2023-07-31T03:58:10;99479.91;;;16.61;69.62
47761;BME280;33524;55.434;38.520;2023-07-31T04:00:40;99486.28;;;16.91;68.37
47761;BME280;33524;55.434;38.520;2023-07-31T04:03:08;99479.84;;;17.09;69.75
47761;BME280;33524;55.434;38.520;2023-07-31T04:05:38;99485.50;;;17.37;66.98
47761;BME280;33524;55.434;38.520;2023-07-31T04:08:07;99477.25;;;17.70;68.85
47761;BME280;33524;55.434;38.520;2023-07-31T04:10:35;99479.41;;;17.89;67.26
47761;BME280;33524;55.434;38.520;2023-07-31T04:13:03;99470.84;;;18.32;66.58
47761;BME280;33524;55.434;38.520;2023-07-31T04:15:31;99471.41;;;18.27;67.96
47761;BME280;33524;55.434;38.520;2023-07-31T04:17:59;99472.84;;;18.45;67.16
47761;BME280;33524;55.434;38.520;2023-07-31T04:20:27;99476.19;;;18.68;66.48
47761;BME280;33524;55.434;38.520;2023-07-31T04:22:55;99478.03;;;18.83;66.67
47761;BME280;33524;55.434;38.520;2023-07-31T04:25:23;99478.75;;;18.76;68.48
47761;BME280;33524;55.434;38.520;2023-07-31T04:27:51;99478.16;;;19.32;65.53
47761;BME280;33524;55.434;38.520;2023-07-31T04:30:19;99483.31;;;19.77;64.83
47761;BME280;33524;55.434;38.520;2023-07-31T04:32:47;99477.69;;;19.93;64.62
47761;BME280;33524;55.434;38.520;2023-07-31T04:35:15;99479.56;;;20.00;64.82
47761;BME280;33524;55.434;38.520;2023-07-31T04:37:43;99470.94;;;20.26;64.85
47761;BME280;33524;55.434;38.520;2023-07-31T04:40:15;99476.25;;;20.26;64.89
47761;BME280;33524;55.434;38.520;2023-07-31T04:42:43;99473.06;;;20.50;64.84
47761;BME280;33524;55.434;38.520;2023-07-31T04:45:11;99486.97;;;20.67;64.55
47761;BME280;33524;55.434;38.520;2023-07-31T04:47:39;99488.59;;;21.30;63.43
47761;BME280;33524;55.434;38.520;2023-07-31T04:50:08;99488.25;;;21.46;62.41
47761;BME280;33524;55.434;38.520;2023-07-31T04:52:36;99488.66;;;21.83;62.17
47761;BME280;33524;55.434;38.520;2023-07-31T04:55:04;99489.44;;;22.24;61.84
47761;BME280;33524;55.434;38.520;2023-07-31T04:57:32;99482.56;;;22.54;61.03
47761;BME280;33524;55.434;38.520;2023-07-31T05:00:00;99476.69;;;22.84;61.25
47761;BME280;33524;55.434;38.520;2023-07-31T05:02:31;99479.81;;;22.74;61.00
47761;BME280;33524;55.434;38.520;2023-07-31T05:04:59;99482.84;;;23.30;58.89
47761;BME280;33524;55.434;38.520;2023-07-31T05:07:30;99482.31;;;23.46;60.49
47761;BME280;33524;55.434;38.520;2023-07-31T05:09:58;99478.38;;;23.99;59.79
47761;BME280;33524;55.434;38.520;2023-07-31T05:12:25;99478.94;;;24.26;58.95
47761;BME280;33524;55.434;38.520;2023-07-31T05:14:57;99486.09;;;24.14;58.86
47761;BME280;33524;55.434;38.520;2023-07-31T05:17:24;99483.41;;;23.64;60.69
47761;BME280;33524;55.434;38.520;2023-07-31T05:19:52;99483.41;;;24.14;60.04
47761;BME280;33524;55.434;38.520;2023-07-31T05:22:22;99478.84;;;24.58;58.51
47761;BME280;33524;55.434;38.520;2023-07-31T05:24:50;99486.72;;;24.53;59.06
47761;BME280;33524;55.434;38.520;2023-07-31T05:27:18;99479.59;;;25.26;57.81
47761;BME280;33524;55.434;38.520;2023-07-31T05:29:46;99483.28;;;25.43;56.68
47761;BME280;33524;55.434;38.520;2023-07-31T05:32:14;99480.31;;;26.10;56.95
47761;BME280;33524;55.434;38.520;2023-07-31T05:34:42;99479.66;;;26.44;55.27
47761;BME280;33524;55.434;38.520;2023-07-31T05:37:10;99477.75;;;26.80;54.26
47761;BME280;33524;55.434;38.520;2023-07-31T05:39:39;99475.75;;;27.04;53.91
47761;BME280;33524;55.434;38.520;2023-07-31T05:42:07;99479.62;;;26.79;55.51
47761;BME280;33524;55.434;38.520;2023-07-31T05:44:35;99480.50;;;27.25;52.98
47761;BME280;33524;55.434;38.520;2023-07-31T05:47:03;99482.63;;;27.40;54.29
47761;BME280;33524;55.434;38.520;2023-07-31T05:49:32;99482.94;;;26.98;55.16
47761;BME280;33524;55.434;38.520;2023-07-31T05:52:00;99482.50;;;27.81;53.92
47761;BME280;33524;55.434;38.520;2023-07-31T05:54:28;99477.31;;;27.79;53.70
47761;BME280;33524;55.434;38.520;2023-07-31T05:56:56;99482.72;;;26.35;53.25
47761;BME280;33524;55.434;38.520;2023-07-31T05:59:24;99474.13;;;27.03;55.71
47761;BME280;33524;55.434;38.520;2023-07-31T06:01:52;99469.56;;;28.61;53.25
47761;BME280;33524;55.434;38.520;2023-07-31T06:04:21;99471.88;;;27.91;53.77
47761;BME280;33524;55.434;38.520;2023-07-31T06:06:52;99472.75;;;27.63;49.46
47761;BME280;33524;55.434;38.520;2023-07-31T06:09:20;99474.97;;;28.61;52.01
47761;BME280;33524;55.434;38.520;2023-07-31T06:11:48;99485.16;;;28.75;53.06
47761;BME280;33524;55.434;38.520;2023-07-31T06:14:16;99482.81;;;28.84;50.14
47761;BME280;33524;55.434;38.520;2023-07-31T06:16:45;99487.75;;;27.87;44.68
47761;BME280;33524;55.434;38.520;2023-07-31T06:19:13;99487.56;;;27.77;40.37
47761;BME280;33524;55.434;38.520;2023-07-31T06:21:41;99494.03;;;28.10;54.77
47761;BME280;33524;55.434;38.520;2023-07-31T06:24:12;99487.59;;;29.91;51.17
47761;BME280;33524;55.434;38.520;2023-07-31T06:26:40;99484.00;;;30.23;47.32
47761;BME280;33524;55.434;38.520;2023-07-31T06:29:09;99487.62;;;31.02;48.44
47761;BME280;33524;55.434;38.520;2023-07-31T06:31:38;99484.94;;;29.96;40.62
47761;BME280;33524;55.434;38.520;2023-07-31T06:34:06;99492.16;;;29.80;47.13
47761;BME280;33524;55.434;38.520;2023-07-31T06:36:34;99484.13;;;31.22;47.27
47761;BME280;33524;55.434;38.520;2023-07-31T06:39:02;99485.34;;;30.73;41.37
47761;BME280;33524;55.434;38.520;2023-07-31T06:41:31;99488.28;;;30.61;43.69
47761;BME280;33524;55.434;38.520;2023-07-31T06:44:00;99484.94;;;31.37;46.46
47761;BME280;33524;55.434;38.520;2023-07-31T06:46:29;99500.88;;;30.30;50.65
47761;BME280;33524;55.434;38.520;2023-07-31T06:48:57;99481.69;;;31.41;48.38
47761;BME280;33524;55.434;38.520;2023-07-31T06:51:25;99493.34;;;28.81;38.01
47761;BME280;33524;55.434;38.520;2023-07-31T06:53:53;99492.78;;;31.03;49.39
47761;BME280;33524;55.434;38.520;2023-07-31T06:56:21;99494.50;;;30.56;50.24
47761;BME280;33524;55.434;38.520;2023-07-31T06:58:49;99486.31;;;31.71;43.70
47761;BME280;33524;55.434;38.520;2023-07-31T07:01:18;99483.56;;;31.14;49.11
47761;BME280;33524;55.434;38.520;2023-07-31T07:03:46;99486.59;;;32.00;46.83
47761;BME280;33524;55.434;38.520;2023-07-31T07:06:14;99490.03;;;32.96;44.97
47761;BME280;33524;55.434;38.520;2023-07-31T07:08:42;99488.53;;;32.75;44.92
47761;BME280;33524;55.434;38.520;2023-07-31T07:11:10;99486.84;;;31.93;37.46
47761;BME280;33524;55.434;38.520;2023-07-31T07:13:38;99489.72;;;33.08;44.08
47761;BME280;33524;55.434;38.520;2023-07-31T07:16:06;99492.19;;;32.40;41.16
47761;BME280;33524;55.434;38.520;2023-07-31T07:18:34;99497.97;;;31.25;49.46
47761;BME280;33524;55.434;38.520;2023-07-31T07:21:05;99492.03;;;31.54;42.06
47761;BME280;33524;55.434;38.520;2023-07-31T07:23:33;99499.81;;;30.94;46.02
47761;BME280;33524;55.434;38.520;2023-07-31T07:26:01;99497.69;;;32.29;36.93
47761;BME280;33524;55.434;38.520;2023-07-31T07:28:29;99495.41;;;32.52;46.66
47761;BME280;33524;55.434;38.520;2023-07-31T07:30:58;99482.06;;;33.50;43.19
47761;BME280;33524;55.434;38.520;2023-07-31T07:33:26;99504.47;;;31.14;46.97
47761;BME280;33524;55.434;38.520;2023-07-31T07:35:54;99488.22;;;31.96;47.30
47761;BME280;33524;55.434;38.520;2023-07-31T07:38:22;99496.69;;;33.93;43.24
47761;BME280;33524;55.434;38.520;2023-07-31T07:40:51;99498.13;;;33.51;38.43
47761;BME280;33524;55.434;38.520;2023-07-31T07:43:21;99506.13;;;31.25;34.25
47761;BME280;33524;55.434;38.520;2023-07-31T07:45:49;99497.84;;;33.19;43.31
47761;BME280;33524;55.434;38.520;2023-07-31T07:48:17;99498.87;;;33.62;41.98
47761;BME280;33524;55.434;38.520;2023-07-31T07:50:45;99499.63;;;34.74;42.38
47761;BME280;33524;55.434;38.520;2023-07-31T07:53:13;99492.03;;;35.28;40.67
47761;BME280;33524;55.434;38.520;2023-07-31T07:55:41;99494.72;;;32.86;30.66
47761;BME280;33524;55.434;38.520;2023-07-31T07:58:09;99491.78;;;33.66;33.66
47761;BME280;33524;55.434;38.520;2023-07-31T08:00:38;99497.87;;;32.43;47.76
47761;BME280;33524;55.434;38.520;2023-07-31T08:03:06;99494.53;;;34.20;43.79
47761;BME280;33524;55.434;38.520;2023-07-31T08:05:34;99506.72;;;31.73;35.04
47761;BME280;33524;55.434;38.520;2023-07-31T08:08:02;99502.94;;;33.65;40.92
47761;BME280;33524;55.434;38.520;2023-07-31T08:10:30;99500.28;;;33.89;42.26
47761;BME280;33524;55.434;38.520;2023-07-31T08:12:58;99511.13;;;32.81;31.82
47761;BME280;33524;55.434;38.520;2023-07-31T08:15:26;99496.72;;;34.42;43.24
47761;BME280;33524;55.434;38.520;2023-07-31T08:17:54;99503.34;;;34.60;42.18
47761;BME280;33524;55.434;38.520;2023-07-31T08:20:22;99504.38;;;34.40;40.43
47761;BME280;33524;55.434;38.520;2023-07-31T08:22:50;99501.28;;;31.84;44.58
47761;BME280;33524;55.434;38.520;2023-07-31T08:25:18;99511.25;;;32.40;46.50
47761;BME280;33524;55.434;38.520;2023-07-31T08:27:46;99506.16;;;30.57;34.91
47761;BME280;33524;55.434;38.520;2023-07-31T08:30:14;99511.03;;;28.66;31.79
47761;BME280;33524;55.434;38.520;2023-07-31T08:32:42;99510.44;;;30.43;31.86
47761;BME280;33524;55.434;38.520;2023-07-31T08:35:10;99494.34;;;34.11;40.02
47761;BME280;33524;55.434;38.520;2023-07-31T08:37:39;99493.03;;;36.95;36.23
47761;BME280;33524;55.434;38.520;2023-07-31T08:40:07;99493.78;;;36.87;37.25
47761;BME280;33524;55.434;38.520;2023-07-31T08:42:44;99510.34;;;35.09;40.64
47761;BME280;33524;55.434;38.520;2023-07-31T08:45:17;99504.78;;;34.76;38.23
47761;BME280;33524;55.434;38.520;2023-07-31T08:47:50;99515.53;;;32.66;34.55
47761;BME280;33524;55.434;38.520;2023-07-31T08:50:20;99518.75;;;35.50;39.33
47761;BME280;33524;55.434;38.520;2023-07-31T08:52:50;99511.75;;;35.06;41.14
47761;BME280;33524;55.434;38.520;2023-07-31T08:55:19;99518.28;;;33.55;41.76
47761;BME280;33524;55.434;38.520;2023-07-31T08:57:52;99514.22;;;36.53;38.29
47761;BME280;33524;55.434;38.520;2023-07-31T09:00:21;99514.69;;;34.91;41.74
47761;BME280;33524;55.434;38.520;2023-07-31T09:03:15;99514.03;;;33.39;29.44
47761;BME280;33524;55.434;38.520;2023-07-31T09:05:46;99525.75;;;31.58;33.60
47761;BME280;33524;55.434;38.520;2023-07-31T09:08:18;99513.63;;;33.56;43.97
47761;BME280;33524;55.434;38.520;2023-07-31T09:10:48;99508.50;;;33.84;41.73
47761;BME280;33524;55.434;38.520;2023-07-31T09:13:19;99522.84;;;32.71;45.00
47761;BME280;33524;55.434;38.520;2023-07-31T09:15:47;99525.31;;;32.67;44.89
47761;BME280;33524;55.434;38.520;2023-07-31T09:18:15;99512.94;;;35.38;40.93
47761;BME280;33524;55.434;38.520;2023-07-31T09:21:03;99517.00;;;35.41;34.07
47761;BME280;33524;55.434;38.520;2023-07-31T09:23:42;99514.38;;;34.49;42.68
47761;BME280;33524;55.434;38.520;2023-07-31T09:26:11;99524.38;;;30.67;37.55
47761;BME280;33524;55.434;38.520;2023-07-31T09:28:58;99521.22;;;33.64;43.44
47761;BME280;33524;55.434;38.520;2023-07-31T09:31:38;99518.34;;;33.45;34.09
47761;BME280;33524;55.434;38.520;2023-07-31T09:34:06;99515.41;;;32.92;41.43
47761;BME280;33524;55.434;38.520;2023-07-31T09:36:50;99518.78;;;33.63;36.80
47761;BME280;33524;55.434;38.520;2023-07-31T09:39:21;99528.19;;;31.75;48.08
47761;BME280;33524;55.434;38.520;2023-07-31T09:41:56;99522.75;;;31.65;41.13
47761;BME280;33524;55.434;38.520;2023-07-31T09:44:53;99533.53;;;31.03;42.86
47761;BME280;33524;55.434;38.520;2023-07-31T09:47:23;99515.63;;;32.35;46.14
47761;BME280;33524;55.434;38.520;2023-07-31T09:49:53;99512.59;;;34.10;38.01
47761;BME280;33524;55.434;38.520;2023-07-31T09:52:21;99517.31;;;33.36;39.48
47761;BME280;33524;55.434;38.520;2023-07-31T09:54:50;99522.44;;;34.65;39.90
47761;BME280;33524;55.434;38.520;2023-07-31T09:57:21;99515.91;;;32.24;32.75
47761;BME280;33524;55.434;38.520;2023-07-31T09:59:52;99513.50;;;31.96;33.39
47761;BME280;33524;55.434;38.520;2023-07-31T10:02:21;99514.38;;;34.25;36.06
47761;BME280;33524;55.434;38.520;2023-07-31T10:04:51;99519.38;;;34.66;27.93
47761;BME280;33524;55.434;38.520;2023-07-31T10:07:24;99516.69;;;33.49;29.26
47761;BME280;33524;55.434;38.520;2023-07-31T10:09:53;99512.91;;;34.09;37.26
47761;BME280;33524;55.434;38.520;2023-07-31T10:12:25;99512.25;;;35.65;35.62
47761;BME280;33524;55.434;38.520;2023-07-31T10:14:56;99526.09;;;33.28;26.19
47761;BME280;33524;55.434;38.520;2023-07-31T10:17:25;99525.31;;;30.88;27.87
47761;BME280;33524;55.434;38.520;2023-07-31T10:19:53;99520.22;;;33.50;28.87
47761;BME280;33524;55.434;38.520;2023-07-31T10:22:22;99520.84;;;32.87;26.11
47761;BME280;33524;55.434;38.520;2023-07-31T10:24:50;99518.75;;;34.93;35.57
47761;BME280;33524;55.434;38.520;2023-07-31T10:27:20;99521.41;;;33.39;32.09
47761;BME280;33524;55.434;38.520;2023-07-31T10:29:48;99531.53;;;33.33;37.65
47761;BME280;33524;55.434;38.520;2023-07-31T10:32:18;99525.31;;;35.49;38.94
47761;BME280;33524;55.434;38.520;2023-07-31T10:34:49;99523.28;;;33.77;30.52
47761;BME280;33524;55.434;38.520;2023-07-31T10:40:09;99524.56;;;32.46;31.90
47761;BME280;33524;55.434;38.520;2023-07-31T10:42:38;99518.75;;;33.28;33.27
47761;BME280;33524;55.434;38.520;2023-07-31T10:45:13;99522.09;;;35.09;38.47
47761;BME280;33524;55.434;38.520;2023-07-31T10:47:45;99518.97;;;31.50;27.51
47761;BME280;33524;55.434;38.520;2023-07-31T10:50:23;99523.56;;;33.42;29.17
47761;BME280;33524;55.434;38.520;2023-07-31T10:52:53;99518.53;;;34.71;39.38
47761;BME280;33524;55.434;38.520;2023-07-31T10:58:11;99512.25;;;34.89;31.20
47761;BME280;33524;55.434;38.520;2023-07-31T11:00:42;99508.53;;;33.44;27.33
47761;BME280;33524;55.434;38.520;2023-07-31T11:03:14;99530.16;;;30.86;28.61
47761;BME280;33524;55.434;38.520;2023-07-31T11:05:54;99532.38;;;30.89;26.78
47761;BME280;33524;55.434;38.520;2023-07-31T11:08:34;99507.63;;;35.80;34.95
47761;BME280;33524;55.434;38.520;2023-07-31T11:13:47;99519.56;;;29.89;29.24
47761;BME280;33524;55.434;38.520;2023-07-31T11:16:20;99513.31;;;30.84;36.19
47761;BME280;33524;55.434;38.520;2023-07-31T11:18:49;99504.84;;;31.48;35.09
47761;BME280;33524;55.434;38.520;2023-07-31T11:21:21;99516.53;;;30.70;31.78
47761;BME280;33524;55.434;38.520;2023-07-31T11:23:52;99512.22;;;29.52;31.32
47761;BME280;33524;55.434;38.520;2023-07-31T11:26:20;99512.44;;;31.72;35.51
47761;BME280;33524;55.434;38.520;2023-07-31T11:28:49;99515.56;;;29.91;36.71
47761;BME280;33524;55.434;38.520;2023-07-31T11:31:20;99518.88;;;30.41;41.03
47761;BME280;33524;55.434;38.520;2023-07-31T11:33:48;99512.38;;;31.26;37.00
47761;BME280;33524;55.434;38.520;2023-07-31T11:36:18;99514.44;;;29.87;33.46
47761;BME280;33524;55.434;38.520;2023-07-31T11:38:46;99509.56;;;29.03;34.71
47761;BME280;33524;55.434;38.520;2023-07-31T11:41:16;99494.12;;;33.78;33.97
47761;BME280;33524;55.434;38.520;2023-07-31T11:43:48;99497.16;;;30.41;32.90
47761;BME280;33524;55.434;38.520;2023-07-31T11:46:16;99496.41;;;31.65;44.10
47761;BME280;33524;55.434;38.520;2023-07-31T11:48:45;99508.88;;;30.52;31.99
47761;BME280;33524;55.434;38.520;2023-07-31T11:51:14;99503.59;;;29.60;30.58
47761;BME280;33524;55.434;38.520;2023-07-31T11:53:44;99498.41;;;28.99;31.79
47761;BME280;33524;55.434;38.520;2023-07-31T11:56:17;99503.28;;;28.53;32.84
47761;BME280;33524;55.434;38.520;2023-07-31T11:58:48;99497.94;;;28.58;33.04
47761;BME280;33524;55.434;38.520;2023-07-31T12:01:19;99497.72;;;29.36;33.34
47761;BME280;33524;55.434;38.520;2023-07-31T12:03:49;99501.81;;;29.38;31.95
47761;BME280;33524;55.434;38.520;2023-07-31T12:06:18;99497.22;;;30.09;31.92
47761;BME280;33524;55.434;38.520;2023-07-31T12:08:48;99495.88;;;29.42;29.46
47761;BME280;33524;55.434;38.520;2023-07-31T12:11:16;99502.19;;;29.85;30.76
47761;BME280;33524;55.434;38.520;2023-07-31T12:13:45;99497.28;;;30.24;32.89
47761;BME280;33524;55.434;38.520;2023-07-31T12:16:14;99501.06;;;30.66;30.80
47761;BME280;33524;55.434;38.520;2023-07-31T12:18:42;99490.63;;;31.15;29.85
47761;BME280;33524;55.434;38.520;2023-07-31T12:21:10;99495.22;;;31.05;29.40
47761;BME280;33524;55.434;38.520;2023-07-31T12:23:39;99506.97;;;29.40;30.89
47761;BME280;33524;55.434;38.520;2023-07-31T12:26:16;99508.97;;;28.73;32.15
47761;BME280;33524;55.434;38.520;2023-07-31T12:28:47;99505.19;;;28.35;40.67
47761;BME280;33524;55.434;38.520;2023-07-31T12:33:51;99510.81;;;28.12;35.37
47761;BME280;33524;55.434;38.520;2023-07-31T12:36:23;99515.53;;;28.83;36.14
47761;BME280;33524;55.434;38.520;2023-07-31T12:38:53;99510.66;;;28.57;33.86
47761;BME280;33524;55.434;38.520;2023-07-31T12:41:24;99511.88;;;30.55;32.84
47761;BME280;33524;55.434;38.520;2023-07-31T12:43:54;99505.37;;;31.55;28.88
47761;BME280;33524;55.434;38.520;2023-07-31T12:46:22;99508.59;;;32.09;28.55
47761;BME280;33524;55.434;38.520;2023-07-31T12:48:50;99507.00;;;32.83;29.83
47761;BME280;33524;55.434;38.520;2023-07-31T12:51:19;99505.81;;;33.44;27.13
47761;BME280;33524;55.434;38.520;2023-07-31T12:53:47;99507.53;;;31.64;28.92
47761;BME280;33524;55.434;38.520;2023-07-31T12:56:15;99520.28;;;30.54;30.71
47761;BME280;33524;55.434;38.520;2023-07-31T12:58:43;99511.88;;;28.94;32.71
47761;BME280;33524;55.434;38.520;2023-07-31T13:01:11;99523.69;;;29.96;32.30
47761;BME280;33524;55.434;38.520;2023-07-31T13:03:40;99517.31;;;31.60;29.86
47761;BME280;33524;55.434;38.520;2023-07-31T13:06:08;99507.66;;;32.49;28.22
47761;BME280;33524;55.434;38.520;2023-07-31T13:08:36;99506.03;;;33.13;27.91
47761;BME280;33524;55.434;38.520;2023-07-31T13:11:04;99501.12;;;32.55;28.04
47761;BME280;33524;55.434;38.520;2023-07-31T13:13:32;99511.13;;;32.75;29.03
47761;BME280;33524;55.434;38.520;2023-07-31T13:16:00;99508.06;;;31.45;29.02
47761;BME280;33524;55.434;38.520;2023-07-31T13:18:28;99515.53;;;30.87;30.98